createdAt,value
2019-03-09T00:00:23.775Z,10.84
2019-03-09T00:05:32.651Z,6.32
2019-03-09T00:10:41.543Z,10.56
2019-03-09T00:15:50.412Z,7.84
2019-03-09T00:20:59.330Z,9.99
2019-03-09T00:26:08.227Z,8.89
2019-03-09T00:31:17.184Z,7.13
2019-03-09T00:36:28.056Z,9.50
2019-03-09T00:41:34.495Z,6.97
2019-03-09T00:46:43.344Z,7.89
2019-03-09T00:51:52.238Z,5.78
2019-03-09T00:57:01.268Z,6.70
2019-03-09T01:02:10.148Z,8.01
2019-03-09T01:07:19.019Z,8.35
2019-03-09T01:12:27.868Z,7.04
2019-03-09T01:17:36.755Z,11.71
2019-03-09T01:22:45.655Z,17.20
2019-03-09T01:27:54.547Z,7.61
2019-03-09T01:33:03.423Z,6.48
2019-03-09T01:38:12.352Z,9.92
2019-03-09T01:43:21.217Z,6.88
2019-03-09T01:48:30.101Z,6.20
2019-03-09T01:53:39.031Z,10.83
2019-03-09T01:58:47.922Z,5.95
2019-03-09T02:03:56.835Z,6.47
2019-03-09T02:09:05.724Z,4.70
2019-03-09T02:14:14.610Z,4.26
2019-03-09T02:19:23.487Z,4.33
2019-03-09T02:24:32.415Z,10.17
2019-03-09T02:29:41.286Z,9.90
2019-03-09T02:34:50.173Z,7.25
2019-03-09T02:39:59.044Z,9.24
2019-03-09T02:45:07.929Z,8.38
2019-03-09T02:50:16.835Z,4.82
2019-03-09T02:55:25.672Z,6.66
2019-03-09T03:00:34.641Z,9.02
2019-03-09T03:05:43.476Z,6.64
2019-03-09T03:10:52.439Z,5.50
2019-03-09T03:16:01.279Z,18.35
2019-03-09T03:21:10.191Z,7.80
2019-03-09T03:26:19.056Z,8.23
2019-03-09T03:31:27.961Z,9.28
2019-03-09T03:36:36.813Z,8.72
2019-03-09T03:41:45.758Z,9.00
2019-03-09T03:46:54.613Z,8.80
2019-03-09T03:52:03.544Z,9.19
2019-03-09T03:57:12.432Z,11.84
2019-03-09T04:02:21.298Z,10.26
2019-03-09T04:07:30.167Z,11.83
2019-03-09T04:12:39.081Z,12.97
2019-03-09T04:17:47.948Z,10.54
2019-03-09T04:22:56.853Z,13.58
2019-03-09T04:28:05.764Z,10.39
2019-03-09T04:33:14.695Z,10.53
2019-03-09T04:38:23.587Z,10.49
2019-03-09T04:43:32.469Z,9.16
2019-03-09T04:48:41.332Z,10.04
2019-03-09T04:53:50.202Z,9.01
2019-03-09T04:58:59.105Z,10.06
2019-03-09T05:04:07.987Z,15.29
2019-03-09T05:09:16.855Z,9.69
2019-03-09T05:14:25.708Z,11.10
2019-03-09T05:19:34.677Z,25.68
2019-03-09T05:24:43.562Z,36.43
2019-03-09T05:29:52.488Z,39.61
2019-03-09T05:35:01.368Z,28.16
2019-03-09T05:40:10.450Z,35.90
2019-03-09T05:45:19.315Z,30.31
2019-03-09T05:50:28.188Z,27.26
2019-03-09T05:55:37.067Z,24.45
2019-03-09T06:00:45.936Z,26.97
2019-03-09T06:05:54.807Z,19.14
2019-03-09T06:11:03.683Z,17.13
2019-03-09T06:16:12.549Z,31.63
2019-03-09T06:21:21.448Z,31.33
2019-03-09T06:26:30.359Z,28.05
2019-03-09T06:31:39.278Z,24.86
2019-03-09T06:36:48.188Z,18.27
2019-03-09T06:41:57.088Z,19.83
2019-03-09T06:47:05.960Z,18.34
2019-03-09T06:52:14.874Z,20.08
2019-03-09T06:57:23.734Z,19.01
2019-03-09T07:02:32.624Z,19.07
2019-03-09T07:07:41.458Z,19.22
2019-03-09T07:12:50.331Z,16.11
2019-03-09T07:17:59.216Z,26.72
2019-03-09T07:23:08.088Z,34.71
2019-03-09T07:28:16.960Z,30.27
2019-03-09T07:33:25.899Z,21.56
2019-03-09T07:38:34.760Z,21.16
2019-03-09T07:43:43.629Z,21.88
2019-03-09T07:48:52.486Z,24.88
2019-03-09T07:54:01.348Z,21.23
2019-03-09T07:59:10.256Z,22.51
2019-03-09T08:04:19.096Z,19.32
2019-03-09T08:09:27.991Z,24.01
2019-03-09T08:14:36.905Z,23.64
2019-03-09T08:19:45.931Z,23.30
2019-03-09T08:24:54.872Z,23.74
2019-03-09T08:30:03.695Z,22.44
2019-03-09T08:35:12.534Z,24.62
2019-03-09T08:40:21.465Z,17.89
2019-03-09T08:45:30.317Z,22.58
2019-03-09T08:50:39.235Z,24.62
2019-03-09T08:55:48.202Z,20.71
2019-03-09T09:00:57.118Z,21.00
2019-03-09T09:06:06.063Z,27.25
2019-03-09T09:11:14.927Z,28.17
2019-03-09T09:16:23.823Z,24.58
2019-03-09T09:21:32.689Z,24.33
2019-03-09T09:26:41.607Z,23.74
2019-03-09T09:31:50.519Z,22.79
2019-03-09T09:36:59.402Z,20.92
2019-03-09T09:42:08.252Z,22.52
2019-03-09T09:47:17.139Z,20.49
2019-03-09T09:52:26.044Z,18.93
2019-03-09T09:57:34.925Z,22.08
2019-03-09T10:02:43.798Z,20.48
2019-03-09T10:07:52.686Z,19.99
2019-03-09T10:13:01.583Z,20.86
2019-03-09T10:18:10.475Z,21.86
2019-03-09T10:23:19.361Z,22.92
2019-03-09T10:28:28.213Z,21.58
2019-03-09T10:33:37.095Z,19.38
2019-03-09T10:38:45.995Z,21.30
2019-03-09T10:43:54.849Z,22.08
2019-03-09T10:49:03.719Z,19.72
2019-03-09T10:54:12.618Z,18.82
2019-03-09T10:59:21.494Z,22.83
2019-03-09T11:04:30.408Z,25.39
2019-03-09T11:09:39.286Z,19.82
2019-03-09T11:14:48.196Z,24.21
2019-03-09T11:19:57.048Z,24.32
2019-03-09T11:25:05.964Z,22.33
2019-03-09T11:30:14.826Z,24.29
2019-03-09T11:35:23.744Z,26.66
2019-03-09T11:40:32.619Z,23.95
2019-03-09T11:45:41.496Z,29.52
2019-03-09T11:50:50.371Z,28.78
2019-03-09T11:55:59.258Z,32.76
2019-03-09T12:01:08.132Z,28.92
2019-03-09T12:06:17.023Z,27.54
2019-03-09T12:11:25.960Z,28.89
2019-03-09T12:16:34.846Z,29.21
2019-03-09T12:21:43.727Z,28.60
2019-03-09T12:26:52.583Z,29.78
2019-03-09T12:32:01.448Z,31.80
2019-03-09T12:37:10.341Z,28.51
2019-03-09T12:42:19.239Z,36.36
2019-03-09T12:47:28.138Z,36.91
2019-03-09T12:52:37.063Z,33.96
2019-03-09T12:57:45.925Z,38.71
2019-03-09T13:02:54.803Z,35.80
2019-03-09T13:08:03.637Z,33.60
2019-03-09T13:13:12.560Z,38.16
2019-03-09T13:18:21.455Z,32.36
2019-03-09T13:23:30.319Z,33.65
2019-03-09T13:28:39.178Z,38.07
2019-03-09T13:33:48.030Z,34.23
2019-03-09T13:38:56.896Z,36.01
2019-03-09T13:44:05.772Z,38.37
2019-03-09T13:49:14.662Z,37.65
2019-03-09T13:54:23.519Z,39.73
2019-03-09T13:59:32.460Z,40.20
2019-03-09T14:04:41.342Z,39.41
2019-03-09T14:09:50.243Z,33.30
2019-03-09T14:14:59.111Z,29.31
2019-03-09T14:20:07.959Z,23.28
2019-03-09T14:25:17.022Z,22.96
2019-03-09T14:30:25.861Z,24.05
2019-03-09T14:35:34.788Z,19.38
2019-03-09T14:40:43.735Z,17.10
2019-03-09T14:45:52.581Z,16.06
2019-03-09T14:51:01.457Z,15.51
2019-03-09T14:56:10.312Z,12.02
2019-03-09T15:01:19.284Z,11.23
2019-03-09T15:06:28.144Z,12.81
2019-03-09T15:11:37.020Z,14.36
2019-03-09T15:16:45.913Z,15.19
2019-03-09T15:21:54.811Z,12.94
2019-03-09T15:27:03.718Z,12.54
2019-03-09T15:32:12.584Z,13.75
2019-03-09T15:37:21.482Z,12.31
2019-03-09T15:42:30.350Z,13.43
2019-03-09T15:47:39.270Z,15.22
2019-03-09T15:52:48.161Z,11.53
2019-03-09T15:57:57.063Z,13.72
2019-03-09T16:03:06.001Z,14.46
2019-03-09T16:08:14.878Z,15.29
2019-03-09T16:13:24.503Z,15.36
2019-03-09T16:18:32.693Z,16.51
2019-03-09T16:23:40.636Z,19.69
2019-03-09T16:28:49.535Z,27.41
2019-03-09T16:33:58.543Z,22.61
2019-03-09T16:39:07.521Z,23.74
2019-03-09T16:44:16.379Z,19.27
2019-03-09T16:49:25.297Z,23.86
2019-03-09T16:54:34.182Z,26.47
2019-03-09T16:59:44.362Z,28.65
2019-03-09T17:04:51.504Z,22.61
2019-03-09T17:10:00.410Z,23.24
2019-03-09T17:15:09.239Z,21.50
2019-03-09T17:20:18.228Z,21.79
2019-03-09T17:25:27.080Z,18.05
2019-03-09T17:30:35.975Z,18.56
2019-03-09T17:35:44.891Z,17.53
2019-03-09T17:40:53.765Z,17.98
2019-03-09T17:46:02.650Z,18.30
2019-03-09T17:51:11.501Z,21.04
2019-03-09T17:56:20.395Z,15.33
2019-03-09T18:01:29.276Z,16.33
2019-03-09T18:06:38.212Z,14.31
2019-03-09T18:11:47.125Z,12.51
2019-03-09T18:16:56.021Z,12.46
2019-03-09T18:22:04.904Z,11.95
2019-03-09T18:27:13.811Z,11.86
2019-03-09T18:32:22.716Z,12.51
2019-03-09T18:37:31.603Z,12.38
2019-03-09T18:42:40.531Z,10.08
2019-03-09T18:47:49.561Z,9.44
2019-03-09T18:52:58.432Z,14.25
2019-03-09T18:58:07.313Z,19.60
2019-03-09T19:03:16.213Z,18.26
2019-03-09T19:08:25.090Z,17.03
2019-03-09T19:13:33.924Z,21.20
2019-03-09T19:18:42.803Z,17.14
2019-03-09T19:23:51.680Z,19.22
2019-03-09T19:29:00.579Z,18.56
2019-03-09T19:34:09.479Z,22.34
2019-03-09T19:39:18.364Z,21.78
2019-03-09T19:44:27.265Z,21.91
2019-03-09T19:49:36.178Z,21.31
2019-03-09T19:54:45.041Z,20.46
2019-03-09T19:59:53.896Z,15.65
2019-03-09T20:05:02.764Z,19.84
2019-03-09T20:10:11.674Z,21.92
2019-03-09T20:15:20.528Z,17.84
2019-03-09T20:20:29.399Z,15.90
2019-03-09T20:25:38.312Z,16.38
2019-03-09T20:30:47.191Z,16.34
2019-03-09T20:35:56.148Z,16.45
2019-03-09T20:41:05.043Z,18.57
2019-03-09T20:46:13.924Z,17.16
2019-03-09T20:51:22.796Z,12.81
2019-03-09T20:56:31.669Z,14.75
2019-03-09T21:01:40.543Z,12.96
2019-03-09T21:06:49.416Z,13.27
2019-03-09T21:11:58.301Z,16.63
2019-03-09T21:17:07.261Z,16.41
2019-03-09T21:22:16.168Z,15.84
2019-03-09T21:27:25.052Z,15.11
2019-03-09T21:32:34.051Z,16.58
2019-03-09T21:37:42.945Z,13.63
2019-03-09T21:42:51.808Z,12.63
2019-03-09T21:48:00.715Z,15.39
2019-03-09T21:53:09.614Z,14.37
2019-03-09T21:58:18.535Z,14.68
2019-03-09T22:03:27.403Z,13.68
2019-03-09T22:08:36.267Z,13.29
2019-03-09T22:13:45.160Z,11.17
2019-03-09T22:18:54.078Z,12.76
2019-03-09T22:24:02.946Z,11.29
2019-03-09T22:29:11.895Z,14.54
2019-03-09T22:34:20.777Z,14.65
2019-03-09T22:39:29.641Z,12.88
2019-03-09T22:44:38.587Z,16.07
2019-03-09T22:49:47.634Z,26.31
2019-03-09T22:54:56.629Z,24.27
2019-03-09T23:00:05.478Z,28.86
2019-03-09T23:05:14.375Z,25.09
2019-03-09T23:10:23.232Z,20.66
2019-03-09T23:15:32.155Z,25.80
2019-03-09T23:20:41.048Z,21.56
2019-03-09T23:25:49.930Z,18.67
2019-03-09T23:30:58.819Z,19.23
2019-03-09T23:36:07.665Z,17.95
2019-03-09T23:41:16.582Z,20.72
2019-03-09T23:46:25.436Z,23.03
2019-03-09T23:51:34.288Z,19.22
2019-03-09T23:56:43.206Z,19.88
